Time;durP1;ratioP1;P1;durP2;ratioP2;P2;SDS_P1;SDS_P2;PMS_P1;PMS_P2;Temp;Humidity;BMP_temperature;BMP_pressure;BME280_temperature;BME280_humidity;BME280_pressure;Samples;Min_cycle;Max_cycle;Signal;HPM_P1;HPM_P2
2022/01/18 00:01:11;;;;;;;15.90;5.60;;;6.90;1.00;;;;;;5070474;28;20452;-75
2022/01/18 00:03:36;;;;;;;9.93;4.30;;;6.90;1.00;;;;;;5067720;28;20433;-74
2022/01/18 00:06:03;;;;;;;16.47;5.37;;;7.00;1.00;;;;;;5067181;28;20217;-75
2022/01/18 00:08:29;;;;;;;6.30;4.47;;;;;;;;;;5055262;28;20175;-74
2022/01/18 00:10:54;;;;;;;7.60;4.67;;;7.00;1.00;;;;;;5067602;28;20886;-74
2022/01/18 00:16:11;;;;;;;5.10;4.07;;;6.80;1.00;;;;;;5053029;28;20179;-74
2022/01/18 00:18:38;;;;;;;7.50;4.67;;;7.50;1.00;;;;;;5058709;28;20426;-74
2022/01/18 00:23:35;;;;;;;9.77;4.50;;;6.80;1.00;;;;;;5066519;28;20426;-75
2022/01/18 00:26:01;;;;;;;7.93;4.57;;;6.80;1.00;;;;;;5069962;28;20510;-75
2022/01/18 00:28:29;;;;;;;8.07;5.07;;;6.90;1.00;;;;;;5066628;28;20465;-75
2022/01/18 00:33:36;;;;;;;5.17;4.30;;;6.90;1.00;;;;;;5067892;28;20461;-75
2022/01/18 00:36:03;;;;;;;9.93;5.10;;;6.90;1.00;;;;;;5060301;28;20433;-75
2022/01/18 00:38:47;;;;;;;10.10;4.33;;;6.90;1.00;;;;;;5057599;28;20921;-74
2022/01/18 00:41:13;;;;;;;10.70;4.43;;;6.90;1.00;;;;;;5051396;28;20405;-75
2022/01/18 00:43:40;;;;;;;5.17;3.90;;;7.00;1.00;;;;;;5065160;28;20461;-75
2022/01/18 00:46:06;;;;;;;5.20;3.60;;;6.90;1.00;;;;;;5062381;28;20589;-75
2022/01/18 00:48:35;;;;;;;7.50;3.73;;;6.90;1.00;;;;;;5058293;28;20426;-75
2022/01/18 00:51:03;;;;;;;6.03;3.63;;;6.90;1.00;;;;;;5061479;28;20441;-75
2022/01/18 00:53:35;;;;;;;9.47;4.97;;;6.90;1.00;;;;;;5070217;28;20413;-75
2022/01/18 00:58:40;;;;;;;7.20;4.40;;;6.90;1.00;;;;;;5071955;28;20475;-75
2022/01/18 01:01:07;;;;;;;6.60;3.93;;;6.90;1.00;;;;;;5061881;28;20422;-75
2022/01/18 01:03:33;;;;;;;13.63;5.10;;;6.80;1.00;;;;;;5062914;28;20559;-75
2022/01/18 01:05:59;;;;;;;9.60;5.90;;;6.90;1.00;;;;;;5058223;28;20923;-75
2022/01/18 01:08:25;;;;;;;6.23;4.60;;;6.90;1.00;;;;;;5059550;28;20912;-75
2022/01/18 01:10:50;;;;;;;21.30;5.70;;;6.90;1.00;;;;;;5057671;28;20449;-75
2022/01/18 01:13:16;;;;;;;11.33;5.90;;;6.90;1.00;;;;;;5062473;28;20190;-74
2022/01/18 01:42:14;;;;;;;7.63;4.40;;;7.00;1.00;;;;;;5057441;28;20420;-74
2022/01/18 01:44:45;;;;;;;6.60;4.53;;;6.80;1.00;;;;;;5066988;28;20466;-75
2022/01/18 01:47:13;;;;;;;7.83;4.80;;;6.80;1.00;;;;;;5069232;28;20464;-75
2022/01/18 01:49:40;;;;;;;10.83;4.90;;;6.80;1.00;;;;;;5059300;28;20421;-75
2022/01/18 01:52:08;;;;;;;8.70;5.10;;;6.90;1.00;;;;;;5044795;28;20505;-75
2022/01/18 01:54:33;;;;;;;7.37;4.20;;;6.90;1.00;;;;;;5059367;28;20929;-74
2022/01/18 01:56:59;;;;;;;7.10;4.43;;;6.90;1.00;;;;;;5066488;28;20413;-74
2022/01/18 01:59:25;;;;;;;8.97;4.40;;;6.90;1.00;;;;;;5060892;28;20654;-74
2022/01/18 02:01:50;;;;;;;8.93;4.80;;;6.90;1.00;;;;;;5054649;28;20184;-74
2022/01/18 02:04:16;;;;;;;6.30;4.40;;;6.80;1.00;;;;;;5058723;28;20245;-75
2022/01/18 02:06:43;;;;;;;9.90;5.10;;;6.90;1.00;;;;;;5067136;28;20195;-74
2022/01/18 02:09:09;;;;;;;11.13;5.53;;;6.80;1.00;;;;;;5062919;28;20512;-74
2022/01/18 02:11:35;;;;;;;9.93;5.00;;;6.80;1.00;;;;;;5060858;28;20438;-74
2022/01/18 02:14:01;;;;;;;7.63;4.43;;;6.80;1.00;;;;;;5061451;28;20865;-74
2022/01/18 02:22:00;;;;;;;6.97;4.83;;;6.80;1.00;;;;;;5059541;28;20933;-74
2022/01/18 02:24:26;;;;;;;9.30;5.07;;;6.80;1.00;;;;;;5072798;28;20504;-75
2022/01/18 02:26:51;;;;;;;7.80;4.93;;;6.80;1.00;;;;;;5060018;28;20207;-75
2022/01/18 02:29:17;;;;;;;9.10;5.03;;;6.90;1.00;;;;;;5064525;28;20225;-75
2022/01/18 02:31:48;;;;;;;9.50;5.23;;;6.80;1.00;;;;;;5062419;28;20209;-75
2022/01/18 02:34:17;;;;;;;16.23;5.80;;;6.90;1.00;;;;;;5064521;28;20175;-75
2022/01/18 02:36:44;;;;;;;12.90;6.43;;;6.80;1.00;;;;;;5061612;28;20424;-75
2022/01/18 02:39:11;;;;;;;12.40;5.57;;;6.80;1.00;;;;;;5060912;28;20464;-75
2022/01/18 02:41:37;;;;;;;8.23;5.63;;;6.80;1.00;;;;;;5056355;28;20428;-75
2022/01/18 02:44:07;;;;;;;7.83;4.77;;;6.80;1.00;;;;;;5060843;28;20442;-75
2022/01/18 02:46:33;;;;;;;9.67;4.47;;;6.90;1.00;;;;;;5057092;28;20544;-75
2022/01/18 02:49:00;;;;;;;7.70;4.77;;;6.80;1.00;;;;;;5072148;28;20405;-75
2022/01/18 02:51:27;;;;;;;20.60;6.47;;;6.80;1.00;;;;;;5066478;28;20919;-75
2022/01/18 02:54:01;;;;;;;10.97;5.60;;;6.80;1.00;;;;;;5068677;28;20417;-75
2022/01/18 02:56:41;;;;;;;7.90;4.80;;;6.80;1.00;;;;;;5068584;28;20420;-75
2022/01/18 02:59:22;;;;;;;7.80;4.10;;;6.80;1.00;;;;;;5070194;28;20453;-75
2022/01/18 03:04:38;;;;;;;8.70;5.00;;;6.80;1.00;;;;;;5070625;28;20927;-75
2022/01/18 03:07:04;;;;;;;10.80;5.30;;;6.80;1.00;;;;;;5075343;28;20461;-75
2022/01/18 03:09:30;;;;;;;12.80;6.10;;;6.80;1.00;;;;;;5067086;28;20434;-75
2022/01/18 03:11:55;;;;;;;7.30;4.40;;;6.80;1.00;;;;;;5067884;28;20550;-75
2022/01/18 03:14:21;;;;;;;8.00;4.70;;;6.80;1.00;;;;;;5077352;28;20274;-75
2022/01/18 03:16:47;;;;;;;6.00;4.13;;;6.70;1.00;;;;;;5069138;28;20202;-75
2022/01/18 03:19:13;;;;;;;7.40;4.50;;;6.70;1.00;;;;;;5061319;28;20438;-75
2022/01/18 03:21:38;;;;;;;8.70;4.30;;;6.70;1.00;;;;;;5055218;28;20178;-75
2022/01/18 03:29:40;;;;;;;6.10;4.10;;;6.70;1.00;;;;;;5032198;28;20466;-75
2022/01/18 03:32:07;;;;;;;8.27;4.97;;;6.70;1.00;;;;;;5030941;28;20917;-75
2022/01/18 03:34:33;;;;;;;6.07;4.40;;;6.70;1.00;;;;;;5022583;28;20256;-75
2022/01/18 03:36:59;;;;;;;7.07;4.03;;;6.70;1.00;;;;;;5025827;28;20437;-75
2022/01/18 03:39:24;;;;;;;7.20;4.83;;;6.70;1.00;;;;;;5030863;28;20443;-74
2022/01/18 03:41:55;;;;;;;11.13;5.20;;;6.70;1.00;;;;;;5013463;28;20215;-74
2022/01/18 03:44:24;;;;;;;7.93;4.47;;;6.70;1.00;;;;;;5026450;28;20192;-74
2022/01/18 03:46:52;;;;;;;9.83;5.10;;;6.70;1.00;;;;;;5028492;28;20463;-74
2022/01/18 03:49:19;;;;;;;19.40;4.97;;;6.70;1.00;;;;;;5026373;28;21019;-74
2022/01/18 03:51:45;;;;;;;8.77;5.73;;;6.70;1.00;;;;;;5015310;28;20447;-74
2022/01/18 03:54:13;;;;;;;13.53;6.10;;;6.70;1.00;;;;;;5026084;28;20536;-75
2022/01/18 03:56:39;;;;;;;8.07;4.60;;;6.70;1.00;;;;;;5025492;28;20282;-75
2022/01/18 03:59:04;;;;;;;9.03;4.83;;;6.60;1.00;;;;;;5021326;28;21026;-75
2022/01/18 04:01:31;;;;;;;10.17;5.50;;;6.70;1.00;;;;;;5032383;28;20184;-75
2022/01/18 04:03:57;;;;;;;7.43;5.10;;;6.70;1.00;;;;;;5043660;28;20192;-75
2022/01/18 04:06:23;;;;;;;12.30;5.90;;;6.60;1.00;;;;;;5065812;28;20813;-75
2022/01/18 04:08:54;;;;;;;10.23;5.33;;;6.60;1.00;;;;;;5074318;28;20175;-75
2022/01/18 04:11:20;;;;;;;9.70;5.23;;;;;;;;;;5065817;28;20180;-75
2022/01/18 04:13:46;;;;;;;11.40;4.67;;;6.70;1.00;;;;;;5059664;28;20808;-75
2022/01/18 04:16:11;;;;;;;9.00;5.23;;;6.60;1.00;;;;;;5073934;28;20417;-75
2022/01/18 04:18:56;;;;;;;7.90;5.40;;;6.60;1.00;;;;;;5069270;28;20186;-75
2022/01/18 04:26:56;;;;;;;15.37;6.17;;;6.50;1.00;;;;;;5069205;28;20457;-75
2022/01/18 04:29:22;;;;;;;8.07;5.30;;;6.50;1.00;;;;;;5074013;28;20421;-75
2022/01/18 04:31:48;;;;;;;11.50;5.77;;;6.50;1.00;;;;;;5069765;28;20424;-75
2022/01/18 04:34:14;;;;;;;8.97;5.70;;;6.40;1.00;;;;;;5055748;28;20499;-75
2022/01/18 04:36:40;;;;;;;10.20;5.53;;;6.50;1.00;;;;;;5066323;28;20270;-75
2022/01/18 04:39:05;;;;;;;19.27;6.10;;;6.50;1.00;;;;;;5073932;28;20657;-74
2022/01/18 04:41:32;;;;;;;12.00;5.57;;;6.40;1.00;;;;;;5060256;28;20233;-75
2022/01/18 04:49:11;;;;;;;7.70;5.20;;;6.50;1.00;;;;;;5073797;28;20420;-75
2022/01/18 04:51:38;;;;;;;10.80;5.37;;;6.40;1.00;;;;;;5066132;28;20422;-75
2022/01/18 04:54:07;;;;;;;11.83;5.23;;;6.30;1.00;;;;;;5055386;28;20472;-75
2022/01/18 04:59:04;;;;;;;12.57;5.73;;;6.30;1.00;;;;;;5068115;28;20457;-75
2022/01/18 05:01:30;;;;;;;8.37;5.97;;;6.20;1.00;;;;;;5056336;28;20433;-74
2022/01/18 05:03:56;;;;;;;9.00;6.23;;;6.20;1.00;;;;;;5060465;28;20517;-74
2022/01/18 05:06:22;;;;;;;10.87;6.00;;;6.20;1.00;;;;;;5064108;28;20556;-74
2022/01/18 05:08:48;;;;;;;8.80;5.10;;;6.20;1.00;;;;;;5073167;28;20265;-74
2022/01/18 05:11:17;;;;;;;8.80;5.33;;;6.10;1.00;;;;;;5064828;28;20506;-75
2022/01/18 05:24:22;;;;;;;5.33;4.63;;;6.10;1.00;;;;;;5065862;28;20469;-75
2022/01/18 05:26:49;;;;;;;20.43;4.97;;;;;;;;;;5065485;28;20543;-74
2022/01/18 05:29:15;;;;;;;7.87;4.73;;;6.00;1.00;;;;;;5040334;28;20483;-74
2022/01/18 05:31:41;;;;;;;9.03;4.97;;;6.10;1.00;;;;;;5064243;28;20425;-74
2022/01/18 05:34:07;;;;;;;9.03;4.30;;;6.10;1.00;;;;;;5057450;28;20525;-74
2022/01/18 05:36:33;;;;;;;8.73;4.90;;;6.10;1.00;;;;;;5061293;28;20497;-74
2022/01/18 05:38:58;;;;;;;11.23;6.30;;;6.10;1.00;;;;;;5050521;28;20195;-74
2022/01/18 05:41:24;;;;;;;15.53;5.40;;;6.10;1.00;;;;;;5062832;28;20186;-76
2022/01/18 05:43:49;;;;;;;10.60;5.33;;;6.10;1.00;;;;;;5059288;28;20194;-75
2022/01/18 05:46:15;;;;;;;12.37;4.90;;;6.10;1.00;;;;;;5056711;28;20571;-75
2022/01/18 05:48:41;;;;;;;8.97;4.93;;;6.10;1.00;;;;;;5054809;28;20175;-75
2022/01/18 05:51:07;;;;;;;7.93;5.30;;;6.10;1.00;;;;;;5067073;28;20782;-75
2022/01/18 05:53:38;;;;;;;8.20;5.27;;;6.10;1.00;;;;;;5061020;28;20183;-75
2022/01/18 05:56:04;;;;;;;21.03;6.00;;;6.20;1.00;;;;;;5059761;28;20178;-75
2022/01/18 05:58:30;;;;;;;9.40;5.17;;;6.10;1.00;;;;;;5061605;28;20522;-75
2022/01/18 06:00:56;;;;;;;8.23;4.37;;;6.10;1.00;;;;;;5060203;28;20437;-75
2022/01/18 06:03:52;;;;;;;10.07;5.57;;;6.20;1.00;;;;;;5060348;28;20417;-75
2022/01/18 06:09:03;;;;;;;5.97;4.13;;;6.20;1.00;;;;;;5055932;28;20433;-75
2022/01/18 06:11:28;;;;;;;9.57;5.43;;;6.20;1.00;;;;;;5055195;28;20479;-74
2022/01/18 06:13:54;;;;;;;6.30;4.03;;;6.20;1.00;;;;;;5054722;28;20425;-74
2022/01/18 06:16:20;;;;;;;7.43;5.00;;;6.30;1.00;;;;;;5056996;28;20618;-74
2022/01/18 06:18:46;;;;;;;8.07;5.47;;;6.20;1.00;;;;;;5056405;28;20916;-74
2022/01/18 06:21:11;;;;;;;8.17;4.50;;;6.20;1.00;;;;;;5053002;28;20188;-74
2022/01/18 06:23:37;;;;;;;6.73;4.63;;;6.20;1.00;;;;;;5055882;28;20183;-74
2022/01/18 06:26:06;;;;;;;8.23;4.80;;;6.20;1.00;;;;;;5052951;28;20202;-75
2022/01/18 06:28:32;;;;;;;6.63;4.37;;;6.20;1.00;;;;;;5059148;28;20186;-75
2022/01/18 06:30:58;;;;;;;5.77;4.07;;;6.20;1.00;;;;;;5063467;28;20440;-75
2022/01/18 06:33:24;;;;;;;10.23;4.90;;;6.20;1.00;;;;;;5067569;28;20446;-75
2022/01/18 06:35:51;;;;;;;7.40;4.00;;;6.20;1.00;;;;;;5060540;28;20484;-75
2022/01/18 06:38:17;;;;;;;6.20;3.53;;;6.20;1.00;;;;;;5054560;28;20437;-75
2022/01/18 06:40:54;;;;;;;7.10;4.03;;;6.20;1.00;;;;;;5071946;28;20453;-79
2022/01/18 06:43:20;;;;;;;5.73;3.90;;;6.20;1.00;;;;;;5049740;28;20457;-75
2022/01/18 06:45:46;;;;;;;5.10;3.60;;;6.20;1.00;;;;;;5061317;28;20487;-75
2022/01/18 06:48:12;;;;;;;3.77;3.30;;;6.20;1.00;;;;;;5068964;28;20521;-75
2022/01/18 06:50:38;;;;;;;7.93;4.63;;;6.20;1.00;;;;;;5055090;28;20960;-75
2022/01/18 06:53:04;;;;;;;8.37;3.97;;;6.20;1.00;;;;;;5063079;28;20413;-75
2022/01/18 06:55:30;;;;;;;8.70;4.67;;;6.20;1.00;;;;;;5063499;28;20776;-74
2022/01/18 06:57:57;;;;;;;6.77;4.63;;;6.20;1.00;;;;;;5056102;28;20537;-74
2022/01/18 07:00:25;;;;;;;8.60;4.30;;;6.20;1.00;;;;;;5067146;28;20401;-74
2022/01/18 07:02:55;;;;;;;14.83;4.93;;;6.10;1.00;;;;;;5064046;28;20412;-74
2022/01/18 07:05:21;;;;;;;7.80;4.33;;;6.10;1.00;;;;;;5069834;28;20440;-74
2022/01/18 07:07:48;;;;;;;6.60;4.00;;;6.10;1.00;;;;;;5078153;28;20440;-74
2022/01/18 07:10:15;;;;;;;10.90;4.47;;;6.10;1.00;;;;;;5088488;28;20483;-74
2022/01/18 07:12:43;;;;;;;9.17;5.03;;;6.10;1.00;;;;;;5055915;28;20507;-74
2022/01/18 07:15:09;;;;;;;8.90;3.80;;;6.20;1.00;;;;;;5062386;28;20414;-75
2022/01/18 07:17:38;;;;;;;8.70;4.73;;;6.10;1.00;;;;;;5070202;28;20436;-74
2022/01/18 07:20:04;;;;;;;8.33;4.40;;;6.30;1.00;;;;;;5055440;28;20408;-75
2022/01/18 07:22:30;;;;;;;6.63;4.10;;;6.20;1.00;;;;;;5063304;28;20411;-74
2022/01/18 07:24:58;;;;;;;9.20;4.50;;;6.20;1.00;;;;;;5059768;28;20909;-74
2022/01/18 07:27:24;;;;;;;7.60;4.73;;;6.20;1.00;;;;;;5059998;28;20299;-76
2022/01/18 07:29:50;;;;;;;8.90;4.83;;;6.20;1.00;;;;;;5055592;28;21166;-79
2022/01/18 07:32:24;;;;;;;9.97;4.90;;;6.20;1.00;;;;;;5070029;28;20404;-78
2022/01/18 07:34:56;;;;;;;9.60;5.00;;;6.30;1.00;;;;;;5048220;28;20924;-76
2022/01/18 07:37:22;;;;;;;8.07;3.93;;;6.30;1.00;;;;;;5055267;28;20398;-77
2022/01/18 07:39:50;;;;;;;8.00;4.93;;;6.30;1.00;;;;;;5060532;28;20413;-77
2022/01/18 07:42:18;;;;;;;16.17;4.63;;;6.30;1.00;;;;;;5059639;28;20877;-77
2022/01/18 07:44:49;;;;;;;8.80;4.87;;;6.30;1.00;;;;;;5072121;28;20429;-77
2022/01/18 07:47:31;;;;;;;9.33;4.77;;;6.30;1.00;;;;;;5077581;28;20493;-76
2022/01/18 07:50:00;;;;;;;15.80;6.37;;;6.40;1.00;;;;;;5046353;28;20813;-74
2022/01/18 07:52:26;;;;;;;11.23;6.80;;;6.40;1.00;;;;;;5066095;28;20414;-75
2022/01/18 07:54:52;;;;;;;12.47;6.43;;;6.50;1.00;;;;;;5055159;28;21077;-75
2022/01/18 07:57:25;;;;;;;19.40;7.60;;;6.50;1.00;;;;;;5074006;28;20424;-76
2022/01/18 07:59:50;;;;;;;12.50;6.30;;;6.60;1.00;;;;;;5062374;28;20487;-77
2022/01/18 08:02:18;;;;;;;16.00;6.73;;;6.60;1.00;;;;;;5072526;28;20413;-78
2022/01/18 08:04:48;;;;;;;10.30;5.93;;;6.70;1.00;;;;;;5073085;28;20591;-75
2022/01/18 08:07:18;;;;;;;13.63;6.97;;;6.70;1.00;;;;;;5072764;28;20476;-76
2022/01/18 08:09:44;;;;;;;18.97;8.10;;;6.70;1.00;;;;;;5063205;28;20859;-75
2022/01/18 08:12:12;;;;;;;10.00;6.03;;;6.80;1.00;;;;;;5068260;28;20522;-75
2022/01/18 08:14:46;;;;;;;21.53;7.20;;;6.80;1.00;;;;;;5054777;28;20626;-75
2022/01/18 08:17:12;;;;;;;13.67;7.57;;;6.80;1.00;;;;;;5060500;28;20449;-75
2022/01/18 08:19:49;;;;;;;15.67;7.60;;;6.90;1.00;;;;;;5066636;28;20486;-75
2022/01/18 08:22:14;;;;;;;16.63;8.70;;;7.00;1.00;;;;;;5063677;28;20441;-75
2022/01/18 08:24:41;;;;;;;20.10;8.10;;;7.00;1.00;;;;;;5063034;28;20966;-75
2022/01/18 08:27:07;;;;;;;14.50;7.00;;;7.00;1.00;;;;;;5050449;28;20453;-75
2022/01/18 08:29:35;;;;;;;12.27;6.50;;;7.20;1.00;;;;;;5054505;28;20509;-75
2022/01/18 08:32:00;;;;;;;20.40;8.00;;;7.10;1.00;;;;;;5053455;28;20430;-75
2022/01/18 08:34:26;;;;;;;12.87;7.67;;;7.20;1.00;;;;;;5055333;28;20807;-74
2022/01/18 08:36:52;;;;;;;15.30;8.93;;;;;;;;;;5055610;28;20186;-74
2022/01/18 08:39:19;;;;;;;18.93;9.20;;;7.40;1.00;;;;;;5057894;28;20183;-74
2022/01/18 08:41:45;;;;;;;14.83;8.30;;;7.50;1.00;;;;;;5058658;28;20938;-74
2022/01/18 08:44:12;;;;;;;18.97;10.17;;;7.50;1.00;;;;;;5057327;28;20418;-74
2022/01/18 08:46:38;;;;;;;20.13;9.57;;;7.50;1.00;;;;;;5055371;28;20550;-74
2022/01/18 08:49:18;;;;;;;18.00;9.10;;;7.60;1.00;;;;;;5070697;28;20413;-76
2022/01/18 08:51:48;;;;;;;21.47;10.10;;;7.70;1.00;;;;;;5055611;28;20167;-74
2022/01/18 08:54:24;;;;;;;23.63;10.03;;;7.80;1.00;;;;;;5074461;28;20453;-76
2022/01/18 08:56:54;;;;;;;18.93;10.90;;;7.90;1.00;;;;;;5051125;28;20924;-74
2022/01/18 08:59:35;;;;;;;17.63;8.57;;;7.90;1.00;;;;;;5065547;28;20471;-85
2022/01/18 09:02:01;;;;;;;20.07;9.63;;;8.10;1.00;;;;;;5068725;28;20430;-75
2022/01/18 09:04:27;;;;;;;21.43;9.83;;;8.10;1.00;;;;;;5052451;28;20445;-75
2022/01/18 09:06:53;;;;;;;19.70;9.90;;;8.30;1.00;;;;;;5053239;28;20458;-74
2022/01/18 09:09:19;;;;;;;23.00;10.67;;;8.30;1.00;;;;;;5053665;28;20163;-75
2022/01/18 09:11:49;;;;;;;24.33;9.97;;;8.40;1.00;;;;;;5061667;28;20425;-74
2022/01/18 09:14:15;;;;;;;17.70;9.60;;;8.50;1.00;;;;;;5066959;28;20928;-76
2022/01/18 09:16:42;;;;;;;18.53;8.30;;;8.60;1.00;;;;;;5053432;28;20426;-74
2022/01/18 09:19:08;;;;;;;20.53;8.67;;;8.60;1.00;;;;;;5053082;28;20418;-75
2022/01/18 09:21:34;;;;;;;26.63;9.33;;;8.70;1.00;;;;;;5075061;28;20518;-75
2022/01/18 09:24:03;;;;;;;25.63;8.80;;;8.70;1.00;;;;;;5070601;28;20414;-75
2022/01/18 09:26:29;;;;;;;23.37;9.77;;;8.80;1.00;;;;;;5066050;28;20543;-74
2022/01/18 09:29:00;;;;;;;15.13;8.50;;;8.80;1.00;;;;;;5050592;28;20792;-75
2022/01/18 09:31:26;;;;;;;15.83;8.20;;;8.80;1.00;;;;;;5069879;28;20520;-76
2022/01/18 09:34:00;;;;;;;19.40;8.50;;;8.90;1.00;;;;;;5066475;28;20409;-74
2022/01/18 09:36:26;;;;;;;14.93;8.40;;;8.90;1.00;;;;;;5067216;28;20625;-74
2022/01/18 09:38:52;;;;;;;21.63;9.90;;;9.00;1.00;;;;;;5054310;28;20414;-75
2022/01/18 09:41:21;;;;;;;22.73;7.67;;;9.00;1.00;;;;;;5059563;28;20180;-75
2022/01/18 09:43:47;;;;;;;13.60;7.17;;;9.10;1.00;;;;;;5055680;28;20674;-75
2022/01/18 09:46:14;;;;;;;14.70;8.53;;;9.20;1.00;;;;;;5069153;28;20494;-75
2022/01/18 09:48:39;;;;;;;20.63;8.53;;;9.20;1.00;;;;;;5064895;28;20406;-75
2022/01/18 09:51:05;;;;;;;17.10;8.10;;;9.30;1.00;;;;;;5066565;28;20467;-75
2022/01/18 09:53:31;;;;;;;15.03;7.43;;;9.40;1.00;;;;;;5053355;28;20221;-75
2022/01/18 09:55:57;;;;;;;11.90;6.63;;;9.50;1.00;;;;;;5055675;28;20702;-75
2022/01/18 09:58:23;;;;;;;13.30;7.03;;;9.60;1.00;;;;;;5060257;28;20202;-74
2022/01/18 10:00:50;;;;;;;17.73;8.43;;;9.60;1.00;;;;;;5052853;28;20434;-74
2022/01/18 10:03:34;;;;;;;14.93;6.67;;;9.60;1.00;;;;;;5053471;28;20195;-75
2022/01/18 10:06:02;;;;;;;11.60;7.00;;;9.70;1.00;;;;;;5058970;28;20457;-75
2022/01/18 10:08:28;;;;;;;17.13;6.90;;;9.80;1.00;;;;;;5073463;28;20410;-76
2022/01/18 10:11:08;;;;;;;10.03;5.57;;;9.80;1.00;;;;;;5058793;28;20422;-76
2022/01/18 10:13:35;;;;;;;11.63;6.50;;;9.90;1.00;;;;;;5053992;28;20419;-74
2022/01/18 10:16:13;;;;;;;12.17;5.67;;;9.80;1.00;;;;;;5062530;28;20429;-74
2022/01/18 10:18:48;;;;;;;13.70;5.93;;;9.80;1.00;;;;;;5059632;28;20479;-74
2022/01/18 10:21:23;;;;;;;9.33;4.67;;;10.00;1.00;;;;;;5040429;28;20421;-73
2022/01/18 10:23:49;;;;;;;10.40;5.57;;;10.00;1.00;;;;;;5040689;28;20430;-73
2022/01/18 10:26:25;;;;;;;10.53;4.93;;;10.10;1.00;;;;;;5085873;28;20537;-73
2022/01/18 10:29:05;;;;;;;8.37;4.70;;;10.30;1.00;;;;;;5055805;28;20477;-74
2022/01/18 10:31:41;;;;;;;9.70;4.77;;;10.40;1.00;;;;;;5041339;28;20424;-74
2022/01/18 10:37:30;;;;;;;7.67;3.87;;;10.70;1.00;;;;;;5065013;28;20413;-78
2022/01/18 10:40:18;;;;;;;6.83;4.37;;;10.80;1.00;;;;;;5063222;28;20475;-78
2022/01/18 10:42:52;;;;;;;6.53;3.87;;;10.80;1.00;;;;;;5047242;28;20887;-74
2022/01/18 10:45:35;;;;;;;8.20;4.50;;;10.70;1.00;;;;;;5060731;28;20516;-74
2022/01/18 10:48:16;;;;;;;6.50;3.50;;;10.70;1.00;;;;;;5052914;28;20413;-75
2022/01/18 10:50:44;;;;;;;11.47;5.27;;;10.80;1.00;;;;;;5054137;28;20418;-73
2022/01/18 10:53:19;;;;;;;5.20;4.30;;;10.80;1.00;;;;;;5066328;28;20475;-74
2022/01/18 10:55:46;;;;;;;10.90;5.27;;;10.80;1.00;;;;;;5053347;28;20435;-74
2022/01/18 10:58:19;;;;;;;4.83;3.27;;;10.80;1.00;;;;;;5038975;28;20964;-74
2022/01/18 11:00:46;;;;;;;5.73;3.60;;;10.80;1.00;;;;;;5056473;28;20870;-74
2022/01/18 11:03:12;;;;;;;6.17;3.70;;;10.80;1.00;;;;;;5048672;28;20552;-74
2022/01/18 11:05:41;;;;;;;4.50;3.53;;;10.90;1.00;;;;;;5062605;28;20545;-74
2022/01/18 11:08:07;;;;;;;4.13;3.00;;;10.80;1.00;;;;;;5053864;28;20410;-74
2022/01/18 11:10:37;;;;;;;35.00;15.03;;;10.90;1.00;;;;;;5058456;28;20426;-74
2022/01/18 11:13:10;;;;;;;17.67;7.77;;;11.00;1.00;;;;;;5058411;28;20971;-74
2022/01/18 11:15:40;;;;;;;11.40;5.23;;;11.00;1.00;;;;;;5061356;28;20516;-74
2022/01/18 11:18:15;;;;;;;17.00;7.37;;;10.80;1.00;;;;;;5068291;28;20941;-74
2022/01/18 11:20:44;;;;;;;13.10;5.67;;;10.80;1.00;;;;;;5061709;28;20436;-74
2022/01/18 11:23:10;;;;;;;7.83;3.90;;;10.80;1.00;;;;;;5064005;28;20419;-74
2022/01/18 11:25:37;;;;;;;6.80;4.40;;;10.70;1.00;;;;;;5059159;28;20867;-74
2022/01/18 11:28:07;;;;;;;7.53;4.20;;;10.70;1.00;;;;;;5063534;28;20163;-74
2022/01/18 11:30:38;;;;;;;6.10;3.57;;;10.80;1.00;;;;;;5062396;28;20449;-74
2022/01/18 11:33:07;;;;;;;9.23;2.93;;;10.80;1.00;;;;;;5070555;28;20870;-75
2022/01/18 11:35:47;;;;;;;6.40;2.83;;;10.60;1.00;;;;;;5055846;28;20523;-74
2022/01/18 11:38:35;;;;;;;10.00;4.40;;;10.70;1.00;;;;;;5059567;28;20484;-74
2022/01/18 11:41:02;;;;;;;4.20;2.37;;;10.70;1.00;;;;;;5054922;28;20433;-75
2022/01/18 11:43:44;;;;;;;2.40;1.73;;;10.60;1.00;;;;;;5053259;28;20418;-75
2022/01/18 11:46:31;;;;;;;4.53;2.50;;;10.60;1.00;;;;;;5054352;28;20460;-75
2022/01/18 11:49:21;;;;;;;2.70;1.93;;;10.50;1.00;;;;;;5058271;28;20438;-75
2022/01/18 11:51:54;;;;;;;21.40;10.57;;;10.50;1.00;;;;;;5056114;28;20730;-74
2022/01/18 11:54:57;;;;;;;4.70;2.67;;;10.50;1.00;;;;;;5061436;28;20388;-74
2022/01/18 11:57:23;;;;;;;12.40;6.93;;;10.40;1.00;;;;;;5059628;28;20426;-74
2022/01/18 11:59:55;;;;;;;5.13;2.93;;;10.40;1.00;;;;;;5056101;28;20440;-74
2022/01/18 12:02:41;;;;;;;27.73;14.37;;;10.30;1.00;;;;;;5072706;28;20649;-74
2022/01/18 12:05:19;;;;;;;7.47;4.43;;;10.40;1.00;;;;;;5057147;28;20414;-77
2022/01/18 12:08:01;;;;;;;7.00;3.10;;;10.40;1.00;;;;;;5043273;28;20424;-74
2022/01/18 12:13:34;;;;;;;6.57;3.77;;;10.60;1.00;;;;;;5065821;28;20421;-75
2022/01/18 12:16:10;;;;;;;4.40;1.90;;;10.70;1.00;;;;;;5038009;28;20430;-74
2022/01/18 12:18:49;;;;;;;8.10;2.90;;;10.70;1.00;;;;;;5050463;28;20411;-75
2022/01/18 12:21:22;;;;;;;12.30;6.70;;;10.90;1.00;;;;;;5037931;28;20497;-74
2022/01/18 12:23:48;;;;;;;6.00;3.40;;;10.80;1.00;;;;;;5044749;28;20429;-74
2022/01/18 12:26:32;;;;;;;6.80;3.50;;;10.80;1.00;;;;;;5052274;28;20465;-74
2022/01/18 12:34:31;;;;;;;10.23;2.73;;;10.70;1.00;;;;;;5044792;28;20423;-75
2022/01/18 12:37:14;;;;;;;3.70;2.40;;;10.60;1.00;;;;;;5039436;28;20426;-75
2022/01/18 12:39:55;;;;;;;1.83;1.73;;;10.60;1.00;;;;;;5050511;28;20481;-74
2022/01/18 12:45:10;;;;;;;4.73;2.60;;;10.60;1.00;;;;;;5029035;28;20417;-76
2022/01/18 12:47:43;;;;;;;21.67;9.87;;;10.60;1.00;;;;;;5050721;28;20462;-74
2022/01/18 12:50:11;;;;;;;48.07;18.73;;;10.60;1.00;;;;;;5051101;28;20418;-75
2022/01/18 12:53:01;;;;;;;303.90;105.23;;;10.60;1.00;;;;;;5041179;28;20461;-75
2022/01/18 12:55:45;;;;;;;18.93;8.57;;;10.60;1.00;;;;;;5045158;28;20485;-74
2022/01/18 12:58:17;;;;;;;10.27;3.53;;;10.60;1.00;;;;;;5069682;28;20461;-74
2022/01/18 13:00:48;;;;;;;2.23;1.40;;;10.60;1.00;;;;;;5088795;28;20423;-73
2022/01/18 13:03:30;;;;;;;1.27;1.17;;;10.60;1.00;;;;;;5068785;28;20424;-74
2022/01/18 13:05:58;;;;;;;55.13;24.03;;;10.60;1.00;;;;;;5056504;28;20446;-74
2022/01/18 13:08:42;;;;;;;32.20;11.53;;;10.60;1.00;;;;;;5056459;28;20497;-76
2022/01/18 13:11:10;;;;;;;3.70;2.03;;;10.60;1.00;;;;;;5061778;28;20421;-74
2022/01/18 13:13:36;;;;;;;0.90;0.87;;;10.60;1.00;;;;;;5063986;28;20443;-75
2022/01/18 13:22:53;;;;;;;0.93;0.93;;;10.60;1.00;;;;;;5060716;28;20936;-75
2022/01/18 13:27:13;;;;;;;7.13;3.40;;;10.30;1.00;;;;;;5060864;28;20789;-74
2022/01/18 13:29:39;;;;;;;4.53;2.30;;;10.30;1.00;;;;;;5056436;28;21020;-74
2022/01/18 13:32:09;;;;;;;0.87;0.87;;;10.40;1.00;;;;;;5070848;28;20447;-74
2022/01/18 13:34:38;;;;;;;0.80;0.57;;;10.30;1.00;;;;;;5072814;28;20170;-74
2022/01/18 13:37:07;;;;;;;1.67;0.80;;;10.20;1.00;;;;;;5062009;28;20499;-75
2022/01/18 13:39:44;;;;;;;1.37;0.60;;;11.00;1.00;;;;;;5059265;28;20432;-75
2022/01/18 13:42:12;;;;;;;0.80;0.70;;;10.20;1.00;;;;;;5072876;28;20408;-75
2022/01/18 13:44:38;;;;;;;4.13;3.57;;;10.40;1.00;;;;;;5071723;28;20478;-75
2022/01/18 13:47:13;;;;;;;5.73;2.83;;;10.10;1.00;;;;;;5066398;28;20457;-75
2022/01/18 13:49:39;;;;;;;1.93;1.67;;;10.10;1.00;;;;;;5065885;28;20980;-75
2022/01/18 13:52:07;;;;;;;2.53;0.90;;;10.10;1.00;;;;;;5064502;28;20493;-75
2022/01/18 13:54:53;;;;;;;1.93;1.57;;;10.10;1.00;;;;;;5060363;28;20819;-75
2022/01/18 13:57:21;;;;;;;2.77;1.40;;;10.10;1.00;;;;;;5061784;28;20419;-75
2022/01/18 13:59:49;;;;;;;1.43;1.30;;;10.00;1.00;;;;;;5068551;28;20453;-76
2022/01/18 14:02:25;;;;;;;1.33;0.60;;;10.50;1.00;;;;;;5067835;28;20438;-74
2022/01/18 14:05:09;;;;;;;0.90;0.70;;;10.00;1.00;;;;;;5081535;28;20536;-75
2022/01/18 14:07:35;;;;;;;1.23;0.50;;;10.00;1.00;;;;;;5066626;28;20823;-75
2022/01/18 14:10:02;;;;;;;1.63;1.50;;;10.00;1.00;;;;;;5064681;28;20437;-75
2022/01/18 14:12:32;;;;;;;0.60;0.60;;;9.90;1.00;;;;;;5054965;28;20415;-75
2022/01/18 14:14:58;;;;;;;0.97;0.90;;;10.00;1.00;;;;;;5065928;28;20425;-75
2022/01/18 14:17:24;;;;;;;0.80;0.50;;;9.90;1.00;;;;;;5054098;28;20426;-74
2022/01/18 14:20:03;;;;;;;26.20;12.00;;;9.90;1.00;;;;;;5053283;28;20506;-74
2022/01/18 14:22:29;;;;;;;13.83;6.10;;;9.80;1.00;;;;;;5053175;28;20193;-75
2022/01/18 14:24:57;;;;;;;12.57;7.00;;;9.80;1.00;;;;;;5061171;28;20513;-75
2022/01/18 14:27:28;;;;;;;11.20;5.00;;;9.80;1.00;;;;;;5052860;28;20203;-75
2022/01/18 14:29:57;;;;;;;33.90;13.70;;;9.90;1.00;;;;;;5057729;28;20428;-75
2022/01/18 14:32:26;;;;;;;11.37;5.90;;;9.90;1.00;;;;;;5066195;28;20421;-74
2022/01/18 14:35:13;;;;;;;8.93;5.57;;;9.80;1.00;;;;;;5066820;28;20441;-75
2022/01/18 14:37:47;;;;;;;4.07;2.73;;;9.90;1.00;;;;;;5061810;28;20441;-74
2022/01/18 14:40:21;;;;;;;2.30;1.70;;;9.90;1.00;;;;;;5044599;28;20446;-74
2022/01/18 14:42:51;;;;;;;0.60;0.60;;;9.90;1.00;;;;;;5047703;28;20535;-75
2022/01/18 14:47:50;;;;;;;1.00;1.00;;;9.90;1.00;;;;;;5054124;28;20434;-74
2022/01/18 14:50:21;;;;;;;6.93;3.50;;;9.90;1.00;;;;;;5059321;28;20408;-74
2022/01/18 14:52:49;;;;;;;3.43;2.90;;;9.90;1.00;;;;;;5050226;28;20540;-75
2022/01/18 14:55:17;;;;;;;1.97;1.50;;;9.90;1.00;;;;;;5057080;28;20431;-75